Disclaimer

Please do not use the information listed here in-flight or in-navigation, as they are not provided to us by the airports but are provided by volunteers, so they might be outdated.

Search


Regions


Airport information page

Radio informations:
Tower (TWR) - 122.5 MHz
RDO - 6595 MHz
Ground (GND) - 121.9 MHz
Approach (APP) - 126.2 MHz

Airport informations:
Latitude: 17° 23' 11.17" N
Longitude: 102° 47' 17.69" E
Elevation: 579 feet - 176 meters
Operating hours: 24 hour operations
Operating agency: Civil government, landing fees and diplomatic clearance may be required
Timezone: UTC+7
Fuel: Jet A1, without icing nhibitor.

100/130 MIL Spec, low lead, aviation gasoline (BLUE)

Runway information:
12/30 - 10000 x 148 feet< - >3048 x 45 meters

Recent METARs:
VTUD 210900Z 00000KT 9999 FEW045 34/21 Q1009 NOSIG
VTUD 211000Z 36003KT 310V060 9999 FEW045 33/21 Q1009 NOSIG
VTUD 211000Z 36003KT 310V060 9999 FEW045 33/21 Q1009 NOSIG

Airport on the map: